sensor_id;sensor_type;location;lat;lon;timestamp;pressure;altitude;pressure_sealevel;temperature;humidity
25664;BME280;13522;50.018;20.014;2023-05-23T00:03:01;98604.39;;;12.73;100.00
25664;BME280;13522;50.018;20.014;2023-05-23T00:06:17;98608.20;;;12.71;100.00
25664;BME280;13522;50.018;20.014;2023-05-23T00:09:31;98604.69;;;12.70;100.00
25664;BME280;13522;50.018;20.014;2023-05-23T00:12:44;98609.64;;;12.57;100.00
25664;BME280;13522;50.018;20.014;2023-05-23T00:15:57;98604.62;;;12.54;100.00
25664;BME280;13522;50.018;20.014;2023-05-23T00:19:10;98596.80;;;12.53;100.00
25664;BME280;13522;50.018;20.014;2023-05-23T00:22:23;98601.57;;;12.41;100.00
25664;BME280;13522;50.018;20.014;2023-05-23T00:25:36;98596.08;;;12.43;100.00
25664;BME280;13522;50.018;20.014;2023-05-23T00:28:50;98605.25;;;12.48;100.00
25664;BME280;13522;50.018;20.014;2023-05-23T00:32:02;98601.41;;;12.43;100.00
25664;BME280;13522;50.018;20.014;2023-05-23T00:35:15;98603.52;;;12.31;100.00
25664;BME280;13522;50.018;20.014;2023-05-23T00:38:29;98600.22;;;12.37;100.00
25664;BME280;13522;50.018;20.014;2023-05-23T00:41:41;98596.88;;;12.35;100.00
25664;BME280;13522;50.018;20.014;2023-05-23T00:44:56;98594.89;;;12.37;100.00
25664;BME280;13522;50.018;20.014;2023-05-23T00:48:08;98599.84;;;12.32;100.00
25664;BME280;13522;50.018;20.014;2023-05-23T00:51:21;98592.53;;;12.34;100.00
25664;BME280;13522;50.018;20.014;2023-05-23T00:54:34;98591.67;;;12.26;100.00
25664;BME280;13522;50.018;20.014;2023-05-23T00:57:47;98589.64;;;12.19;100.00
25664;BME280;13522;50.018;20.014;2023-05-23T01:01:00;98589.13;;;12.16;100.00
25664;BME280;13522;50.018;20.014;2023-05-23T01:04:13;98579.40;;;12.07;100.00
25664;BME280;13522;50.018;20.014;2023-05-23T01:07:26;98581.09;;;12.08;100.00
25664;BME280;13522;50.018;20.014;2023-05-23T01:10:38;98582.11;;;12.15;100.00
25664;BME280;13522;50.018;20.014;2023-05-23T01:13:58;98588.23;;;12.07;100.00
25664;BME280;13522;50.018;20.014;2023-05-23T01:17:18;98577.70;;;11.98;100.00
25664;BME280;13522;50.018;20.014;2023-05-23T01:20:37;98583.31;;;11.95;100.00
25664;BME280;13522;50.018;20.014;2023-05-23T01:24:12;98581.79;;;11.92;100.00
25664;BME280;13522;50.018;20.014;2023-05-23T01:27:52;98573.86;;;12.00;100.00
25664;BME280;13522;50.018;20.014;2023-05-23T01:31:07;98578.72;;;12.05;100.00
25664;BME280;13522;50.018;20.014;2023-05-23T01:34:21;98571.06;;;12.02;100.00
25664;BME280;13522;50.018;20.014;2023-05-23T01:37:34;98574.41;;;12.04;100.00
25664;BME280;13522;50.018;20.014;2023-05-23T01:40:46;98572.20;;;11.99;100.00
25664;BME280;13522;50.018;20.014;2023-05-23T01:43:58;98565.02;;;11.92;100.00
25664;BME280;13522;50.018;20.014;2023-05-23T01:47:11;98570.63;;;11.89;100.00
25664;BME280;13522;50.018;20.014;2023-05-23T01:50:25;98569.27;;;11.85;100.00
25664;BME280;13522;50.018;20.014;2023-05-23T01:53:38;98563.48;;;11.89;100.00
25664;BME280;13522;50.018;20.014;2023-05-23T01:56:51;98572.25;;;11.82;100.00
25664;BME280;13522;50.018;20.014;2023-05-23T02:00:04;98569.70;;;11.72;100.00
25664;BME280;13522;50.018;20.014;2023-05-23T02:03:20;98566.81;;;11.66;100.00
25664;BME280;13522;50.018;20.014;2023-05-23T02:06:32;98562.76;;;11.62;100.00
25664;BME280;13522;50.018;20.014;2023-05-23T02:09:44;98555.72;;;11.53;100.00
25664;BME280;13522;50.018;20.014;2023-05-23T02:12:56;98558.99;;;11.47;100.00
25664;BME280;13522;50.018;20.014;2023-05-23T02:16:09;98550.63;;;11.42;100.00
25664;BME280;13522;50.018;20.014;2023-05-23T02:19:23;98554.83;;;11.26;100.00
25664;BME280;13522;50.018;20.014;2023-05-23T02:22:35;98560.36;;;11.15;100.00
25664;BME280;13522;50.018;20.014;2023-05-23T02:25:48;98551.70;;;11.13;100.00
25664;BME280;13522;50.018;20.014;2023-05-23T02:29:00;98557.17;;;11.12;100.00
25664;BME280;13522;50.018;20.014;2023-05-23T02:32:12;98559.22;;;11.00;100.00
25664;BME280;13522;50.018;20.014;2023-05-23T02:35:24;98553.30;;;11.06;100.00
25664;BME280;13522;50.018;20.014;2023-05-23T02:38:36;98546.70;;;11.10;100.00
25664;BME280;13522;50.018;20.014;2023-05-23T02:41:49;98548.06;;;11.14;100.00
25664;BME280;13522;50.018;20.014;2023-05-23T02:45:03;98555.96;;;11.06;100.00
25664;BME280;13522;50.018;20.014;2023-05-23T02:48:18;98548.14;;;10.87;100.00
25664;BME280;13522;50.018;20.014;2023-05-23T02:51:30;98554.64;;;10.75;100.00
25664;BME280;13522;50.018;20.014;2023-05-23T02:54:42;98557.48;;;10.91;100.00
25664;BME280;13522;50.018;20.014;2023-05-23T02:57:54;98551.53;;;10.97;100.00
25664;BME280;13522;50.018;20.014;2023-05-23T03:01:09;98546.77;;;10.83;100.00
25664;BME280;13522;50.018;20.014;2023-05-23T03:04:23;98549.24;;;10.67;100.00
25664;BME280;13522;50.018;20.014;2023-05-23T03:07:35;98546.03;;;10.64;100.00
25664;BME280;13522;50.018;20.014;2023-05-23T03:10:47;98550.05;;;10.68;100.00
25664;BME280;13522;50.018;20.014;2023-05-23T03:14:00;98554.56;;;10.67;100.00
25664;BME280;13522;50.018;20.014;2023-05-23T03:17:14;98543.53;;;10.62;100.00
25664;BME280;13522;50.018;20.014;2023-05-23T03:20:26;98534.44;;;10.65;100.00
25664;BME280;13522;50.018;20.014;2023-05-23T03:23:48;98540.13;;;10.70;100.00
25664;BME280;13522;50.018;20.014;2023-05-23T03:27:00;98541.37;;;10.75;100.00
25664;BME280;13522;50.018;20.014;2023-05-23T03:33:13;98549.80;;;10.88;100.00
25664;BME280;13522;50.018;20.014;2023-05-23T03:39:26;98544.32;;;10.90;100.00
25664;BME280;13522;50.018;20.014;2023-05-23T03:54:56;98556.64;;;11.08;100.00
25664;BME280;13522;50.018;20.014;2023-05-23T03:58:09;98549.72;;;11.15;100.00
25664;BME280;13522;50.018;20.014;2023-05-23T04:01:22;98555.44;;;11.20;100.00
25664;BME280;13522;50.018;20.014;2023-05-23T04:04:35;98549.44;;;11.18;100.00
25664;BME280;13522;50.018;20.014;2023-05-23T04:07:47;98548.83;;;11.24;100.00
25664;BME280;13522;50.018;20.014;2023-05-23T04:11:01;98547.53;;;11.28;100.00
25664;BME280;13522;50.018;20.014;2023-05-23T04:14:15;98554.73;;;11.36;100.00
25664;BME280;13522;50.018;20.014;2023-05-23T04:17:30;98550.39;;;11.35;100.00
25664;BME280;13522;50.018;20.014;2023-05-23T04:20:45;98548.29;;;11.39;100.00
25664;BME280;13522;50.018;20.014;2023-05-23T04:23:57;98548.65;;;11.44;100.00
25664;BME280;13522;50.018;20.014;2023-05-23T04:27:11;98548.09;;;11.58;100.00
25664;BME280;13522;50.018;20.014;2023-05-23T04:30:23;98549.14;;;11.65;100.00
25664;BME280;13522;50.018;20.014;2023-05-23T04:33:36;98541.25;;;11.73;100.00
25664;BME280;13522;50.018;20.014;2023-05-23T04:36:49;98532.80;;;11.77;100.00
25664;BME280;13522;50.018;20.014;2023-05-23T04:40:01;98535.90;;;11.90;100.00
25664;BME280;13522;50.018;20.014;2023-05-23T04:43:47;98537.23;;;11.94;100.00
25664;BME280;13522;50.018;20.014;2023-05-23T04:47:07;98531.48;;;12.07;100.00
25664;BME280;13522;50.018;20.014;2023-05-23T04:50:22;98529.92;;;12.22;100.00
25664;BME280;13522;50.018;20.014;2023-05-23T04:54:03;98528.61;;;12.34;100.00
25664;BME280;13522;50.018;20.014;2023-05-23T04:57:15;98526.86;;;12.51;100.00
25664;BME280;13522;50.018;20.014;2023-05-23T05:00:28;98520.69;;;12.50;100.00
25664;BME280;13522;50.018;20.014;2023-05-23T05:03:41;98519.38;;;12.54;100.00
25664;BME280;13522;50.018;20.014;2023-05-23T05:06:53;98511.58;;;12.61;100.00
25664;BME280;13522;50.018;20.014;2023-05-23T05:10:09;98522.56;;;12.66;100.00
25664;BME280;13522;50.018;20.014;2023-05-23T05:13:22;98513.77;;;12.65;100.00
25664;BME280;13522;50.018;20.014;2023-05-23T05:16:35;98518.47;;;12.79;100.00
25664;BME280;13522;50.018;20.014;2023-05-23T05:19:48;98519.13;;;12.89;100.00
25664;BME280;13522;50.018;20.014;2023-05-23T05:23:00;98519.05;;;13.07;100.00
25664;BME280;13522;50.018;20.014;2023-05-23T05:26:15;98511.87;;;13.16;100.00
25664;BME280;13522;50.018;20.014;2023-05-23T05:29:28;98511.87;;;13.16;100.00
25664;BME280;13522;50.018;20.014;2023-05-23T05:32:40;98517.88;;;13.26;100.00
25664;BME280;13522;50.018;20.014;2023-05-23T05:35:53;98510.37;;;13.29;100.00
25664;BME280;13522;50.018;20.014;2023-05-23T05:39:05;98509.21;;;13.40;100.00
25664;BME280;13522;50.018;20.014;2023-05-23T05:42:18;98503.86;;;13.64;100.00
25664;BME280;13522;50.018;20.014;2023-05-23T05:45:30;98496.50;;;13.82;100.00
25664;BME280;13522;50.018;20.014;2023-05-23T05:48:43;98510.80;;;13.97;100.00
25664;BME280;13522;50.018;20.014;2023-05-23T05:51:56;98496.44;;;14.06;100.00
25664;BME280;13522;50.018;20.014;2023-05-23T05:55:10;98500.05;;;14.21;100.00
25664;BME280;13522;50.018;20.014;2023-05-23T05:58:24;98499.00;;;14.38;100.00
25664;BME280;13522;50.018;20.014;2023-05-23T06:01:39;98494.11;;;14.81;100.00
25664;BME280;13522;50.018;20.014;2023-05-23T06:04:52;98484.15;;;14.97;96.53
25664;BME280;13522;50.018;20.014;2023-05-23T06:08:04;98487.77;;;15.27;96.21
25664;BME280;13522;50.018;20.014;2023-05-23T06:11:17;98476.59;;;15.46;92.91
25664;BME280;13522;50.018;20.014;2023-05-23T06:14:29;98475.98;;;15.73;93.34
25664;BME280;13522;50.018;20.014;2023-05-23T06:17:41;98471.66;;;16.01;91.98
25664;BME280;13522;50.018;20.014;2023-05-23T06:20:54;98472.77;;;16.21;92.44
25664;BME280;13522;50.018;20.014;2023-05-23T06:24:08;98467.11;;;16.45;90.38
25664;BME280;13522;50.018;20.014;2023-05-23T06:27:20;98471.23;;;16.77;88.42
25664;BME280;13522;50.018;20.014;2023-05-23T06:30:32;98462.63;;;17.03;88.56
25664;BME280;13522;50.018;20.014;2023-05-23T06:33:46;98465.98;;;17.11;86.55
25664;BME280;13522;50.018;20.014;2023-05-23T06:36:59;98457.75;;;17.34;84.79
25664;BME280;13522;50.018;20.014;2023-05-23T06:40:12;98458.38;;;17.57;85.49
25664;BME280;13522;50.018;20.014;2023-05-23T06:43:25;98463.52;;;17.80;82.50
25664;BME280;13522;50.018;20.014;2023-05-23T06:46:55;98457.57;;;18.25;80.27
25664;BME280;13522;50.018;20.014;2023-05-23T06:50:09;98449.94;;;18.69;80.66
25664;BME280;13522;50.018;20.014;2023-05-23T06:53:24;98448.98;;;19.03;78.52
25664;BME280;13522;50.018;20.014;2023-05-23T06:56:37;98428.10;;;19.38;75.54
25664;BME280;13522;50.018;20.014;2023-05-23T06:59:50;98439.42;;;19.99;73.09
25664;BME280;13522;50.018;20.014;2023-05-23T07:03:02;98441.48;;;20.10;71.87
25664;BME280;13522;50.018;20.014;2023-05-23T07:06:17;98439.16;;;20.33;74.10
25664;BME280;13522;50.018;20.014;2023-05-23T07:09:29;98423.69;;;20.59;68.80
25664;BME280;13522;50.018;20.014;2023-05-23T07:12:47;98425.41;;;21.23;69.34
25664;BME280;13522;50.018;20.014;2023-05-23T07:15:59;98418.70;;;21.25;70.48
25664;BME280;13522;50.018;20.014;2023-05-23T07:19:14;98410.89;;;21.67;66.22
25664;BME280;13522;50.018;20.014;2023-05-23T07:22:28;98416.44;;;21.72;66.47
25664;BME280;13522;50.018;20.014;2023-05-23T07:25:41;98413.56;;;21.91;66.01
25664;BME280;13522;50.018;20.014;2023-05-23T07:28:59;98416.05;;;22.47;66.82
25664;BME280;13522;50.018;20.014;2023-05-23T07:32:12;98418.38;;;22.43;64.69
25664;BME280;13522;50.018;20.014;2023-05-23T07:35:25;98415.41;;;22.81;64.67
25664;BME280;13522;50.018;20.014;2023-05-23T07:38:39;98414.94;;;22.84;63.14
25664;BME280;13522;50.018;20.014;2023-05-23T07:41:52;98411.42;;;22.84;61.83
25664;BME280;13522;50.018;20.014;2023-05-23T07:45:06;98419.02;;;23.05;62.17
25664;BME280;13522;50.018;20.014;2023-05-23T07:48:20;98415.74;;;23.14;61.00
25664;BME280;13522;50.018;20.014;2023-05-23T07:51:33;98407.28;;;23.22;59.29
25664;BME280;13522;50.018;20.014;2023-05-23T07:54:47;98400.87;;;23.47;60.48
25664;BME280;13522;50.018;20.014;2023-05-23T07:58:00;98404.14;;;23.95;63.15
25664;BME280;13522;50.018;20.014;2023-05-23T08:01:13;98397.66;;;24.19;59.39
25664;BME280;13522;50.018;20.014;2023-05-23T08:04:39;98408.88;;;24.11;60.20
25664;BME280;13522;50.018;20.014;2023-05-23T08:07:52;98407.09;;;24.28;59.50
25664;BME280;13522;50.018;20.014;2023-05-23T08:11:05;98409.23;;;23.91;59.75
25664;BME280;13522;50.018;20.014;2023-05-23T08:14:19;98396.56;;;24.71;59.18
25664;BME280;13522;50.018;20.014;2023-05-23T08:17:36;98386.91;;;24.92;55.71
25664;BME280;13522;50.018;20.014;2023-05-23T08:20:49;98396.45;;;24.78;58.29
25664;BME280;13522;50.018;20.014;2023-05-23T08:24:03;98391.22;;;25.05;55.75
25664;BME280;13522;50.018;20.014;2023-05-23T08:27:18;98393.47;;;25.08;55.68
25664;BME280;13522;50.018;20.014;2023-05-23T08:30:32;98395.47;;;25.45;56.00
25664;BME280;13522;50.018;20.014;2023-05-23T08:33:45;98388.86;;;25.25;54.81
25664;BME280;13522;50.018;20.014;2023-05-23T08:36:57;98381.66;;;25.85;52.93
25664;BME280;13522;50.018;20.014;2023-05-23T08:40:13;98392.75;;;25.45;53.60
25664;BME280;13522;50.018;20.014;2023-05-23T08:43:31;98390.48;;;25.92;56.54
25664;BME280;13522;50.018;20.014;2023-05-23T08:46:46;98384.15;;;25.87;56.06
25664;BME280;13522;50.018;20.014;2023-05-23T08:50:02;98386.50;;;26.16;55.19
25664;BME280;13522;50.018;20.014;2023-05-23T08:53:17;98384.22;;;26.30;53.91
25664;BME280;13522;50.018;20.014;2023-05-23T08:56:34;98379.56;;;25.70;53.43
25664;BME280;13522;50.018;20.014;2023-05-23T08:59:47;98383.64;;;26.06;55.01
25664;BME280;13522;50.018;20.014;2023-05-23T09:03:01;98375.92;;;26.03;52.63
25664;BME280;13522;50.018;20.014;2023-05-23T09:06:20;98377.67;;;26.09;52.17
25664;BME280;13522;50.018;20.014;2023-05-23T09:09:33;98368.28;;;26.00;50.02
25664;BME280;13522;50.018;20.014;2023-05-23T09:12:46;98368.05;;;26.45;50.14
25664;BME280;13522;50.018;20.014;2023-05-23T09:16:02;98373.69;;;26.60;52.32
25664;BME280;13522;50.018;20.014;2023-05-23T09:19:19;98367.02;;;26.73;49.22
25664;BME280;13522;50.018;20.014;2023-05-23T09:22:33;98363.44;;;26.94;51.39
25664;BME280;13522;50.018;20.014;2023-05-23T09:25:48;98377.47;;;26.59;52.37
25664;BME280;13522;50.018;20.014;2023-05-23T09:29:03;98373.57;;;26.50;50.84
25664;BME280;13522;50.018;20.014;2023-05-23T09:32:17;98358.92;;;26.78;50.72
25664;BME280;13522;50.018;20.014;2023-05-23T09:35:30;98367.98;;;27.15;52.40
25664;BME280;13522;50.018;20.014;2023-05-23T09:38:45;98343.89;;;27.02;48.35
25664;BME280;13522;50.018;20.014;2023-05-23T09:41:59;98350.86;;;27.19;48.67
25664;BME280;13522;50.018;20.014;2023-05-23T09:45:13;98353.88;;;27.23;49.65
25664;BME280;13522;50.018;20.014;2023-05-23T09:48:30;98349.84;;;26.99;47.40
25664;BME280;13522;50.018;20.014;2023-05-23T09:51:43;98337.61;;;27.01;47.93
25664;BME280;13522;50.018;20.014;2023-05-23T09:55:09;98339.03;;;27.09;46.90
25664;BME280;13522;50.018;20.014;2023-05-23T09:58:23;98334.84;;;27.65;47.20
25664;BME280;13522;50.018;20.014;2023-05-23T10:01:38;98327.51;;;27.70;48.06
25664;BME280;13522;50.018;20.014;2023-05-23T10:04:52;98318.20;;;27.66;46.25
25664;BME280;13522;50.018;20.014;2023-05-23T10:08:11;98317.92;;;27.63;42.62
25664;BME280;13522;50.018;20.014;2023-05-23T10:15:21;98319.19;;;27.50;47.54
25664;BME280;13522;50.018;20.014;2023-05-23T10:18:38;98317.67;;;27.32;46.38
25664;BME280;13522;50.018;20.014;2023-05-23T10:21:57;98311.28;;;27.49;49.08
25664;BME280;13522;50.018;20.014;2023-05-23T10:25:11;98307.91;;;27.78;46.35
25664;BME280;13522;50.018;20.014;2023-05-23T10:28:24;98308.37;;;28.12;47.11
25664;BME280;13522;50.018;20.014;2023-05-23T10:31:38;98310.82;;;28.13;47.48
25664;BME280;13522;50.018;20.014;2023-05-23T10:34:55;98314.39;;;27.30;47.34
25664;BME280;13522;50.018;20.014;2023-05-23T10:38:17;98303.04;;;27.43;46.11
25664;BME280;13522;50.018;20.014;2023-05-23T10:41:38;98291.43;;;28.15;44.51
25664;BME280;13522;50.018;20.014;2023-05-23T10:44:53;98299.89;;;28.08;46.94
25664;BME280;13522;50.018;20.014;2023-05-23T10:48:32;98290.08;;;28.17;46.63
25664;BME280;13522;50.018;20.014;2023-05-23T10:51:49;98294.91;;;27.95;47.33
25664;BME280;13522;50.018;20.014;2023-05-23T10:55:01;98285.41;;;28.08;45.00
25664;BME280;13522;50.018;20.014;2023-05-23T10:58:19;98286.28;;;28.18;46.98
25664;BME280;13522;50.018;20.014;2023-05-23T11:01:32;98280.78;;;28.13;45.96
25664;BME280;13522;50.018;20.014;2023-05-23T11:08:40;98267.98;;;28.29;46.31
25664;BME280;13522;50.018;20.014;2023-05-23T11:12:02;98269.81;;;27.98;46.26
25664;BME280;13522;50.018;20.014;2023-05-23T11:15:23;98268.13;;;27.92;45.09
25664;BME280;13522;50.018;20.014;2023-05-23T11:18:36;98262.89;;;27.86;44.48
25664;BME280;13522;50.018;20.014;2023-05-23T11:21:53;98253.87;;;27.80;41.35
25664;BME280;13522;50.018;20.014;2023-05-23T11:25:12;98251.97;;;27.86;45.25
25664;BME280;13522;50.018;20.014;2023-05-23T11:28:25;98249.11;;;28.17;44.62
25664;BME280;13522;50.018;20.014;2023-05-23T11:31:39;98238.73;;;28.19;43.05
25664;BME280;13522;50.018;20.014;2023-05-23T11:34:52;98242.33;;;28.30;42.33
25664;BME280;13522;50.018;20.014;2023-05-23T11:38:05;98233.18;;;27.94;40.57
25664;BME280;13522;50.018;20.014;2023-05-23T11:41:17;98225.66;;;28.26;42.57
25664;BME280;13522;50.018;20.014;2023-05-23T11:44:30;98228.09;;;28.18;43.53
25664;BME280;13522;50.018;20.014;2023-05-23T11:47:44;98214.73;;;28.47;42.86
25664;BME280;13522;50.018;20.014;2023-05-23T11:50:56;98210.35;;;28.20;42.04
25664;BME280;13522;50.018;20.014;2023-05-23T11:54:18;98209.28;;;28.42;40.69
25664;BME280;13522;50.018;20.014;2023-05-23T11:58:08;98196.15;;;28.39;38.59
25664;BME280;13522;50.018;20.014;2023-05-23T12:01:35;98206.04;;;28.65;40.99
25664;BME280;13522;50.018;20.014;2023-05-23T12:05:10;98202.49;;;28.59;37.15
25664;BME280;13522;50.018;20.014;2023-05-23T12:08:24;98208.20;;;28.48;39.33
25664;BME280;13522;50.018;20.014;2023-05-23T12:11:37;98193.22;;;28.60;37.23
25664;BME280;13522;50.018;20.014;2023-05-23T12:14:51;98195.66;;;28.67;38.96
25664;BME280;13522;50.018;20.014;2023-05-23T12:18:07;98190.73;;;28.79;37.99
25664;BME280;13522;50.018;20.014;2023-05-23T12:21:19;98192.66;;;28.63;39.14
25664;BME280;13522;50.018;20.014;2023-05-23T12:24:34;98198.41;;;28.82;41.10
25664;BME280;13522;50.018;20.014;2023-05-23T12:27:49;98197.79;;;28.29;40.23
25664;BME280;13522;50.018;20.014;2023-05-23T12:31:11;98188.51;;;28.51;41.24
25664;BME280;13522;50.018;20.014;2023-05-23T12:34:26;98187.45;;;28.57;40.41
25664;BME280;13522;50.018;20.014;2023-05-23T12:37:42;98185.78;;;28.36;39.84
25664;BME280;13522;50.018;20.014;2023-05-23T12:41:10;98195.05;;;28.35;41.82
25664;BME280;13522;50.018;20.014;2023-05-23T12:44:30;98181.70;;;28.78;40.13
25664;BME280;13522;50.018;20.014;2023-05-23T12:47:42;98194.03;;;28.76;44.39
25664;BME280;13522;50.018;20.014;2023-05-23T12:50:56;98197.29;;;28.83;43.70
25664;BME280;13522;50.018;20.014;2023-05-23T12:54:10;98195.37;;;28.88;40.86
25664;BME280;13522;50.018;20.014;2023-05-23T12:57:22;98191.30;;;28.76;41.52
25664;BME280;13522;50.018;20.014;2023-05-23T13:00:34;98190.38;;;28.10;39.34
25664;BME280;13522;50.018;20.014;2023-05-23T13:03:50;98177.88;;;28.44;40.24
25664;BME280;13522;50.018;20.014;2023-05-23T13:07:13;98174.90;;;28.56;39.97
25664;BME280;13522;50.018;20.014;2023-05-23T13:10:42;98181.95;;;28.47;40.00
25664;BME280;13522;50.018;20.014;2023-05-23T13:14:11;98181.39;;;28.14;39.01
25664;BME280;13522;50.018;20.014;2023-05-23T13:17:55;98179.73;;;28.08;43.34
25664;BME280;13522;50.018;20.014;2023-05-23T13:21:26;98180.13;;;27.65;43.98
25664;BME280;13522;50.018;20.014;2023-05-23T13:25:29;98177.87;;;27.47;41.85
25664;BME280;13522;50.018;20.014;2023-05-23T13:35:52;98201.45;;;27.26;48.67
25664;BME280;13522;50.018;20.014;2023-05-23T13:39:04;98196.27;;;27.25;46.73
25664;BME280;13522;50.018;20.014;2023-05-23T13:42:16;98200.06;;;27.24;45.95
25664;BME280;13522;50.018;20.014;2023-05-23T13:45:29;98203.22;;;27.06;49.44
25664;BME280;13522;50.018;20.014;2023-05-23T13:48:41;98213.33;;;27.05;47.97
25664;BME280;13522;50.018;20.014;2023-05-23T13:51:54;98219.45;;;26.86;53.79
25664;BME280;13522;50.018;20.014;2023-05-23T13:55:07;98210.39;;;26.80;50.18
25664;BME280;13522;50.018;20.014;2023-05-23T13:58:20;98215.97;;;26.63;49.52
25664;BME280;13522;50.018;20.014;2023-05-23T14:01:32;98198.84;;;26.36;47.76
25664;BME280;13522;50.018;20.014;2023-05-23T14:04:44;98198.12;;;26.19;46.44
25664;BME280;13522;50.018;20.014;2023-05-23T14:07:57;98203.06;;;26.22;51.14
25664;BME280;13522;50.018;20.014;2023-05-23T14:11:09;98202.43;;;26.15;50.61
25664;BME280;13522;50.018;20.014;2023-05-23T14:14:21;98198.31;;;26.13;48.74
25664;BME280;13522;50.018;20.014;2023-05-23T14:17:34;98203.01;;;25.96;53.39
25664;BME280;13522;50.018;20.014;2023-05-23T14:20:46;98212.45;;;25.88;52.38
25664;BME280;13522;50.018;20.014;2023-05-23T14:23:58;98203.98;;;25.85;49.10
25664;BME280;13522;50.018;20.014;2023-05-23T14:27:11;98197.52;;;26.12;45.99
25664;BME280;13522;50.018;20.014;2023-05-23T14:30:24;98209.57;;;26.21;50.74
25664;BME280;13522;50.018;20.014;2023-05-23T14:33:36;98199.61;;;26.32;44.22
25664;BME280;13522;50.018;20.014;2023-05-23T14:36:48;98195.09;;;26.16;42.40
25664;BME280;13522;50.018;20.014;2023-05-23T14:40:01;98201.72;;;26.03;45.70
25664;BME280;13522;50.018;20.014;2023-05-23T14:43:15;98207.02;;;25.88;47.86
25664;BME280;13522;50.018;20.014;2023-05-23T14:46:27;98215.09;;;26.26;48.27
25664;BME280;13522;50.018;20.014;2023-05-23T14:49:40;98234.49;;;25.65;54.32
25664;BME280;13522;50.018;20.014;2023-05-23T14:52:52;98242.06;;;25.08;58.01
25664;BME280;13522;50.018;20.014;2023-05-23T14:56:05;98251.92;;;24.64;60.46
25664;BME280;13522;50.018;20.014;2023-05-23T14:59:17;98252.42;;;24.61;62.74
25664;BME280;13522;50.018;20.014;2023-05-23T15:02:30;98256.25;;;24.32;63.56
25664;BME280;13522;50.018;20.014;2023-05-23T15:05:43;98250.88;;;23.81;65.49
25664;BME280;13522;50.018;20.014;2023-05-23T15:08:55;98240.44;;;23.50;67.18
25664;BME280;13522;50.018;20.014;2023-05-23T15:12:08;98248.70;;;23.32;68.39
25664;BME280;13522;50.018;20.014;2023-05-23T15:15:21;98240.45;;;23.26;70.78
25664;BME280;13522;50.018;20.014;2023-05-23T15:18:37;98246.47;;;23.40;70.53
25664;BME280;13522;50.018;20.014;2023-05-23T15:21:50;98239.63;;;23.38;69.90
25664;BME280;13522;50.018;20.014;2023-05-23T15:25:02;98245.64;;;23.16;69.95
25664;BME280;13522;50.018;20.014;2023-05-23T15:28:16;98239.73;;;23.19;71.22
25664;BME280;13522;50.018;20.014;2023-05-23T15:31:28;98245.87;;;23.26;72.13
25664;BME280;13522;50.018;20.014;2023-05-23T15:34:41;98237.99;;;23.13;72.34
25664;BME280;13522;50.018;20.014;2023-05-23T15:37:56;98237.86;;;22.97;72.60
25664;BME280;13522;50.018;20.014;2023-05-23T15:41:08;98232.55;;;22.90;73.45
25664;BME280;13522;50.018;20.014;2023-05-23T15:44:21;98231.61;;;22.85;73.68
25664;BME280;13522;50.018;20.014;2023-05-23T15:47:34;98227.14;;;22.79;73.39
25664;BME280;13522;50.018;20.014;2023-05-23T15:50:46;98234.42;;;22.67;73.82
25664;BME280;13522;50.018;20.014;2023-05-23T15:53:59;98227.13;;;22.67;74.94
25664;BME280;13522;50.018;20.014;2023-05-23T15:57:12;98221.36;;;22.64;76.13
25664;BME280;13522;50.018;20.014;2023-05-23T16:00:25;98218.17;;;22.78;76.02
25664;BME280;13522;50.018;20.014;2023-05-23T16:03:39;98220.30;;;22.88;75.15
25664;BME280;13522;50.018;20.014;2023-05-23T16:06:52;98211.72;;;22.79;76.89
25664;BME280;13522;50.018;20.014;2023-05-23T16:10:06;98213.59;;;22.79;75.74
25664;BME280;13522;50.018;20.014;2023-05-23T16:13:19;98210.54;;;22.75;75.79
25664;BME280;13522;50.018;20.014;2023-05-23T16:16:31;98211.47;;;22.69;77.26
25664;BME280;13522;50.018;20.014;2023-05-23T16:19:44;98217.13;;;22.68;77.05
25664;BME280;13522;50.018;20.014;2023-05-23T16:22:56;98228.25;;;22.48;77.16
25664;BME280;13522;50.018;20.014;2023-05-23T16:26:09;98232.86;;;22.18;77.43
25664;BME280;13522;50.018;20.014;2023-05-23T16:29:21;98232.63;;;22.19;77.71
25664;BME280;13522;50.018;20.014;2023-05-23T16:32:33;98230.72;;;22.08;78.14
25664;BME280;13522;50.018;20.014;2023-05-23T16:35:46;98228.33;;;22.00;77.92
25664;BME280;13522;50.018;20.014;2023-05-23T16:38:59;98230.33;;;22.05;78.02
25664;BME280;13522;50.018;20.014;2023-05-23T16:42:11;98231.63;;;22.02;79.35
25664;BME280;13522;50.018;20.014;2023-05-23T16:45:25;98227.50;;;22.00;80.35
25664;BME280;13522;50.018;20.014;2023-05-23T16:48:43;98229.61;;;21.98;81.43
25664;BME280;13522;50.018;20.014;2023-05-23T16:51:55;98229.33;;;21.88;81.47
25664;BME280;13522;50.018;20.014;2023-05-23T16:55:08;98232.27;;;21.86;82.47
25664;BME280;13522;50.018;20.014;2023-05-23T16:58:21;98232.31;;;21.80;82.70
25664;BME280;13522;50.018;20.014;2023-05-23T17:01:33;98233.16;;;21.62;83.53
25664;BME280;13522;50.018;20.014;2023-05-23T17:04:46;98232.20;;;21.56;84.70
25664;BME280;13522;50.018;20.014;2023-05-23T17:08:00;98234.88;;;21.20;86.11
25664;BME280;13522;50.018;20.014;2023-05-23T17:11:13;98236.52;;;21.03;87.01
25664;BME280;13522;50.018;20.014;2023-05-23T17:14:26;98237.13;;;21.05;86.99
25664;BME280;13522;50.018;20.014;2023-05-23T17:17:39;98244.77;;;21.08;87.32
25664;BME280;13522;50.018;20.014;2023-05-23T17:20:52;98243.50;;;21.11;87.80
25664;BME280;13522;50.018;20.014;2023-05-23T17:24:05;98248.07;;;21.10;87.83
25664;BME280;13522;50.018;20.014;2023-05-23T17:27:17;98256.40;;;21.09;86.72
25664;BME280;13522;50.018;20.014;2023-05-23T17:30:30;98255.21;;;20.98;88.11